sensor_id;sensor_type;location;lat;lon;timestamp;P1;durP1;ratioP1;P2;durP2;ratioP2
11431;SDS011;5772;50.940;6.782;2023-01-10T00:00:36;38.10;;;36.20;;
11431;SDS011;5772;50.940;6.782;2023-01-10T00:03:04;36.83;;;34.60;;
11431;SDS011;5772;50.940;6.782;2023-01-10T00:05:30;37.93;;;36.17;;
11431;SDS011;5772;50.940;6.782;2023-01-10T00:07:56;35.53;;;33.70;;
11431;SDS011;5772;50.940;6.782;2023-01-10T00:10:21;34.43;;;32.67;;
11431;SDS011;5772;50.940;6.782;2023-01-10T00:12:46;29.77;;;28.20;;
11431;SDS011;5772;50.940;6.782;2023-01-10T00:15:12;30.27;;;28.43;;
11431;SDS011;5772;50.940;6.782;2023-01-10T00:17:37;29.33;;;27.93;;
11431;SDS011;5772;50.940;6.782;2023-01-10T00:20:04;31.80;;;30.30;;
11431;SDS011;5772;50.940;6.782;2023-01-10T00:22:30;35.27;;;33.40;;
11431;SDS011;5772;50.940;6.782;2023-01-10T00:24:56;36.13;;;34.23;;
11431;SDS011;5772;50.940;6.782;2023-01-10T00:27:21;39.37;;;37.47;;
11431;SDS011;5772;50.940;6.782;2023-01-10T00:29:46;40.43;;;38.63;;
11431;SDS011;5772;50.940;6.782;2023-01-10T00:32:12;44.77;;;42.70;;
11431;SDS011;5772;50.940;6.782;2023-01-10T00:34:38;45.00;;;41.93;;
11431;SDS011;5772;50.940;6.782;2023-01-10T00:37:04;44.57;;;42.53;;
11431;SDS011;5772;50.940;6.782;2023-01-10T00:39:30;43.90;;;42.07;;
11431;SDS011;5772;50.940;6.782;2023-01-10T00:41:55;45.10;;;43.07;;
11431;SDS011;5772;50.940;6.782;2023-01-10T00:44:20;40.47;;;38.53;;
11431;SDS011;5772;50.940;6.782;2023-01-10T00:46:46;40.83;;;39.13;;
11431;SDS011;5772;50.940;6.782;2023-01-10T00:49:11;41.17;;;39.27;;
11431;SDS011;5772;50.940;6.782;2023-01-10T00:51:36;41.93;;;39.63;;
11431;SDS011;5772;50.940;6.782;2023-01-10T00:54:03;38.50;;;36.70;;
11431;SDS011;5772;50.940;6.782;2023-01-10T00:56:29;38.43;;;36.90;;
11431;SDS011;5772;50.940;6.782;2023-01-10T00:58:54;40.37;;;38.53;;
11431;SDS011;5772;50.940;6.782;2023-01-10T01:01:20;37.00;;;35.20;;
11431;SDS011;5772;50.940;6.782;2023-01-10T01:03:45;35.67;;;34.10;;
11431;SDS011;5772;50.940;6.782;2023-01-10T01:06:10;35.10;;;33.27;;
11431;SDS011;5772;50.940;6.782;2023-01-10T01:08:36;31.87;;;30.17;;
11431;SDS011;5772;50.940;6.782;2023-01-10T01:11:03;32.60;;;31.10;;
11431;SDS011;5772;50.940;6.782;2023-01-10T01:13:28;33.70;;;31.63;;
11431;SDS011;5772;50.940;6.782;2023-01-10T01:15:55;33.63;;;31.97;;
11431;SDS011;5772;50.940;6.782;2023-01-10T01:18:21;30.77;;;29.43;;
11431;SDS011;5772;50.940;6.782;2023-01-10T01:20:47;32.10;;;30.40;;
11431;SDS011;5772;50.940;6.782;2023-01-10T01:23:17;31.90;;;30.03;;
11431;SDS011;5772;50.940;6.782;2023-01-10T01:25:42;30.07;;;28.43;;
11431;SDS011;5772;50.940;6.782;2023-01-10T01:28:09;29.00;;;27.53;;
11431;SDS011;5772;50.940;6.782;2023-01-10T01:30:36;29.43;;;28.13;;
11431;SDS011;5772;50.940;6.782;2023-01-10T01:33:01;31.17;;;29.63;;
11431;SDS011;5772;50.940;6.782;2023-01-10T01:35:27;30.33;;;28.47;;
11431;SDS011;5772;50.940;6.782;2023-01-10T01:37:52;31.80;;;30.10;;
11431;SDS011;5772;50.940;6.782;2023-01-10T01:40:18;29.20;;;27.80;;
11431;SDS011;5772;50.940;6.782;2023-01-10T01:42:44;29.53;;;27.90;;
11431;SDS011;5772;50.940;6.782;2023-01-10T01:48:01;30.90;;;28.97;;
11431;SDS011;5772;50.940;6.782;2023-01-10T01:50:32;33.17;;;31.57;;
11431;SDS011;5772;50.940;6.782;2023-01-10T01:53:00;31.50;;;30.17;;
11431;SDS011;5772;50.940;6.782;2023-01-10T01:55:27;30.83;;;29.50;;
11431;SDS011;5772;50.940;6.782;2023-01-10T01:57:54;31.83;;;30.13;;
11431;SDS011;5772;50.940;6.782;2023-01-10T02:00:22;31.70;;;29.87;;
11431;SDS011;5772;50.940;6.782;2023-01-10T02:02:50;30.60;;;29.20;;
11431;SDS011;5772;50.940;6.782;2023-01-10T02:05:17;31.33;;;29.40;;
11431;SDS011;5772;50.940;6.782;2023-01-10T02:07:44;31.93;;;30.10;;
11431;SDS011;5772;50.940;6.782;2023-01-10T02:10:11;32.03;;;30.40;;
11431;SDS011;5772;50.940;6.782;2023-01-10T02:12:39;29.53;;;28.03;;
11431;SDS011;5772;50.940;6.782;2023-01-10T02:15:05;27.30;;;25.63;;
11431;SDS011;5772;50.940;6.782;2023-01-10T02:17:31;26.03;;;24.60;;
11431;SDS011;5772;50.940;6.782;2023-01-10T02:19:59;27.37;;;25.70;;
11431;SDS011;5772;50.940;6.782;2023-01-10T02:22:30;27.17;;;25.77;;
11431;SDS011;5772;50.940;6.782;2023-01-10T02:28:02;26.83;;;25.40;;
11431;SDS011;5772;50.940;6.782;2023-01-10T02:30:50;29.93;;;28.30;;
11431;SDS011;5772;50.940;6.782;2023-01-10T02:33:26;29.90;;;28.43;;
11431;SDS011;5772;50.940;6.782;2023-01-10T02:35:58;30.73;;;29.33;;
11431;SDS011;5772;50.940;6.782;2023-01-10T02:38:45;28.13;;;26.20;;
11431;SDS011;5772;50.940;6.782;2023-01-10T02:41:17;25.87;;;24.57;;
11431;SDS011;5772;50.940;6.782;2023-01-10T02:43:47;25.23;;;23.87;;
11431;SDS011;5772;50.940;6.782;2023-01-10T02:46:16;22.87;;;21.93;;
11431;SDS011;5772;50.940;6.782;2023-01-10T02:48:43;25.40;;;24.00;;
11431;SDS011;5772;50.940;6.782;2023-01-10T02:51:09;26.67;;;25.27;;
11431;SDS011;5772;50.940;6.782;2023-01-10T02:53:40;24.97;;;23.57;;
11431;SDS011;5772;50.940;6.782;2023-01-10T02:59:10;21.20;;;20.10;;
11431;SDS011;5772;50.940;6.782;2023-01-10T03:01:46;23.47;;;22.30;;
11431;SDS011;5772;50.940;6.782;2023-01-10T03:04:19;25.23;;;23.07;;
11431;SDS011;5772;50.940;6.782;2023-01-10T03:06:50;24.13;;;23.03;;
11431;SDS011;5772;50.940;6.782;2023-01-10T03:09:19;22.80;;;21.70;;
11431;SDS011;5772;50.940;6.782;2023-01-10T03:11:49;24.87;;;23.50;;
11431;SDS011;5772;50.940;6.782;2023-01-10T03:14:16;23.03;;;21.83;;
11431;SDS011;5772;50.940;6.782;2023-01-10T03:16:44;21.57;;;20.57;;
11431;SDS011;5772;50.940;6.782;2023-01-10T03:19:11;21.07;;;19.87;;
11431;SDS011;5772;50.940;6.782;2023-01-10T03:21:39;21.70;;;20.50;;
11431;SDS011;5772;50.940;6.782;2023-01-10T03:24:06;21.20;;;20.00;;
11431;SDS011;5772;50.940;6.782;2023-01-10T03:26:37;21.43;;;20.07;;
11431;SDS011;5772;50.940;6.782;2023-01-10T03:29:08;21.47;;;20.10;;
11431;SDS011;5772;50.940;6.782;2023-01-10T03:31:36;21.93;;;20.07;;
11431;SDS011;5772;50.940;6.782;2023-01-10T03:34:06;23.03;;;21.67;;
11431;SDS011;5772;50.940;6.782;2023-01-10T03:36:33;22.23;;;20.90;;
11431;SDS011;5772;50.940;6.782;2023-01-10T03:39:06;21.83;;;20.37;;
11431;SDS011;5772;50.940;6.782;2023-01-10T03:41:35;23.10;;;21.47;;
11431;SDS011;5772;50.940;6.782;2023-01-10T03:44:06;22.47;;;20.83;;
11431;SDS011;5772;50.940;6.782;2023-01-10T03:46:38;21.10;;;20.10;;
11431;SDS011;5772;50.940;6.782;2023-01-10T03:49:07;21.03;;;20.03;;
11431;SDS011;5772;50.940;6.782;2023-01-10T03:51:33;21.90;;;20.87;;
11431;SDS011;5772;50.940;6.782;2023-01-10T03:53:59;23.50;;;21.93;;
11431;SDS011;5772;50.940;6.782;2023-01-10T03:56:27;23.67;;;22.47;;
11431;SDS011;5772;50.940;6.782;2023-01-10T03:58:52;24.20;;;22.80;;
11431;SDS011;5772;50.940;6.782;2023-01-10T04:01:17;25.13;;;23.60;;
11431;SDS011;5772;50.940;6.782;2023-01-10T04:03:43;26.30;;;24.70;;
11431;SDS011;5772;50.940;6.782;2023-01-10T04:06:08;27.23;;;25.33;;
11431;SDS011;5772;50.940;6.782;2023-01-10T04:08:34;27.03;;;25.47;;
11431;SDS011;5772;50.940;6.782;2023-01-10T04:10:59;24.87;;;23.33;;
11431;SDS011;5772;50.940;6.782;2023-01-10T04:13:26;26.57;;;24.93;;
11431;SDS011;5772;50.940;6.782;2023-01-10T04:15:51;26.47;;;25.13;;
11431;SDS011;5772;50.940;6.782;2023-01-10T04:18:17;27.53;;;26.10;;
11431;SDS011;5772;50.940;6.782;2023-01-10T04:20:42;24.70;;;23.60;;
11431;SDS011;5772;50.940;6.782;2023-01-10T04:23:08;27.73;;;26.43;;
11431;SDS011;5772;50.940;6.782;2023-01-10T04:25:33;28.17;;;26.80;;
11431;SDS011;5772;50.940;6.782;2023-01-10T04:27:58;27.33;;;26.00;;
11431;SDS011;5772;50.940;6.782;2023-01-10T04:30:25;31.10;;;29.33;;
11431;SDS011;5772;50.940;6.782;2023-01-10T04:32:51;30.60;;;29.00;;
11431;SDS011;5772;50.940;6.782;2023-01-10T04:35:16;30.00;;;28.50;;
11431;SDS011;5772;50.940;6.782;2023-01-10T04:37:41;28.80;;;27.50;;
11431;SDS011;5772;50.940;6.782;2023-01-10T04:40:08;28.20;;;26.63;;
11431;SDS011;5772;50.940;6.782;2023-01-10T04:42:34;28.30;;;27.10;;
11431;SDS011;5772;50.940;6.782;2023-01-10T04:44:59;25.83;;;24.37;;
11431;SDS011;5772;50.940;6.782;2023-01-10T04:47:26;26.27;;;24.33;;
11431;SDS011;5772;50.940;6.782;2023-01-10T04:49:51;24.70;;;23.60;;
11431;SDS011;5772;50.940;6.782;2023-01-10T04:52:17;24.47;;;22.80;;
11431;SDS011;5772;50.940;6.782;2023-01-10T04:54:42;22.93;;;21.80;;
11431;SDS011;5772;50.940;6.782;2023-01-10T04:57:08;23.73;;;22.23;;
11431;SDS011;5772;50.940;6.782;2023-01-10T04:59:33;22.83;;;21.13;;
11431;SDS011;5772;50.940;6.782;2023-01-10T05:01:58;21.53;;;20.33;;
11431;SDS011;5772;50.940;6.782;2023-01-10T05:04:25;20.60;;;19.60;;
11431;SDS011;5772;50.940;6.782;2023-01-10T05:06:50;24.50;;;22.83;;
11431;SDS011;5772;50.940;6.782;2023-01-10T05:09:16;22.20;;;20.97;;
11431;SDS011;5772;50.940;6.782;2023-01-10T05:11:41;22.07;;;20.00;;
11431;SDS011;5772;50.940;6.782;2023-01-10T05:14:07;22.70;;;20.87;;
11431;SDS011;5772;50.940;6.782;2023-01-10T05:16:32;21.97;;;20.80;;
11431;SDS011;5772;50.940;6.782;2023-01-10T05:18:57;21.80;;;20.60;;
11431;SDS011;5772;50.940;6.782;2023-01-10T05:21:24;22.87;;;21.50;;
11431;SDS011;5772;50.940;6.782;2023-01-10T05:23:50;22.47;;;20.77;;
11431;SDS011;5772;50.940;6.782;2023-01-10T05:26:16;22.47;;;21.17;;
11431;SDS011;5772;50.940;6.782;2023-01-10T05:28:46;26.13;;;24.67;;
11431;SDS011;5772;50.940;6.782;2023-01-10T05:31:11;21.97;;;20.70;;
11431;SDS011;5772;50.940;6.782;2023-01-10T05:33:38;21.50;;;20.40;;
11431;SDS011;5772;50.940;6.782;2023-01-10T05:36:05;22.43;;;20.73;;
11431;SDS011;5772;50.940;6.782;2023-01-10T05:38:32;22.50;;;20.90;;
11431;SDS011;5772;50.940;6.782;2023-01-10T05:40:58;22.17;;;20.90;;
11431;SDS011;5772;50.940;6.782;2023-01-10T05:43:24;20.40;;;19.40;;
11431;SDS011;5772;50.940;6.782;2023-01-10T05:45:50;22.23;;;20.57;;
11431;SDS011;5772;50.940;6.782;2023-01-10T05:48:16;24.07;;;22.27;;
11431;SDS011;5772;50.940;6.782;2023-01-10T05:50:41;24.40;;;22.33;;
11431;SDS011;5772;50.940;6.782;2023-01-10T05:53:06;24.73;;;23.40;;
11431;SDS011;5772;50.940;6.782;2023-01-10T05:55:33;27.30;;;25.70;;
11431;SDS011;5772;50.940;6.782;2023-01-10T05:57:59;25.63;;;24.23;;
11431;SDS011;5772;50.940;6.782;2023-01-10T06:00:24;31.37;;;28.17;;
11431;SDS011;5772;50.940;6.782;2023-01-10T06:02:50;30.80;;;28.27;;
11431;SDS011;5772;50.940;6.782;2023-01-10T06:05:15;29.03;;;27.40;;
11431;SDS011;5772;50.940;6.782;2023-01-10T06:07:41;31.17;;;29.53;;
11431;SDS011;5772;50.940;6.782;2023-01-10T06:10:06;31.07;;;29.10;;
11431;SDS011;5772;50.940;6.782;2023-01-10T06:12:33;34.80;;;32.90;;
11431;SDS011;5772;50.940;6.782;2023-01-10T06:14:59;34.80;;;33.13;;
11431;SDS011;5772;50.940;6.782;2023-01-10T06:17:24;32.37;;;30.70;;
11431;SDS011;5772;50.940;6.782;2023-01-10T06:19:49;35.97;;;33.63;;
11431;SDS011;5772;50.940;6.782;2023-01-10T06:22:15;33.30;;;31.43;;
11431;SDS011;5772;50.940;6.782;2023-01-10T06:24:40;36.70;;;34.00;;
11431;SDS011;5772;50.940;6.782;2023-01-10T06:27:05;35.63;;;33.63;;
11431;SDS011;5772;50.940;6.782;2023-01-10T06:29:32;36.30;;;34.17;;
11431;SDS011;5772;50.940;6.782;2023-01-10T06:31:58;35.00;;;33.20;;
11431;SDS011;5772;50.940;6.782;2023-01-10T06:34:23;35.50;;;33.63;;
11431;SDS011;5772;50.940;6.782;2023-01-10T06:36:48;32.73;;;31.00;;
11431;SDS011;5772;50.940;6.782;2023-01-10T06:39:14;35.63;;;33.10;;
11431;SDS011;5772;50.940;6.782;2023-01-10T06:41:39;33.27;;;31.40;;
11431;SDS011;5772;50.940;6.782;2023-01-10T06:44:04;34.23;;;31.97;;
11431;SDS011;5772;50.940;6.782;2023-01-10T06:46:31;34.40;;;32.27;;
11431;SDS011;5772;50.940;6.782;2023-01-10T06:48:56;35.70;;;33.73;;
11431;SDS011;5772;50.940;6.782;2023-01-10T06:51:22;35.17;;;33.63;;
11431;SDS011;5772;50.940;6.782;2023-01-10T06:53:47;35.67;;;33.67;;
11431;SDS011;5772;50.940;6.782;2023-01-10T06:56:13;37.27;;;35.33;;
11431;SDS011;5772;50.940;6.782;2023-01-10T06:58:38;38.50;;;35.77;;
11431;SDS011;5772;50.940;6.782;2023-01-10T07:01:04;37.33;;;35.00;;
11431;SDS011;5772;50.940;6.782;2023-01-10T07:03:31;36.90;;;34.57;;
11431;SDS011;5772;50.940;6.782;2023-01-10T07:05:58;38.00;;;35.63;;
11431;SDS011;5772;50.940;6.782;2023-01-10T07:08:25;40.07;;;37.67;;
11431;SDS011;5772;50.940;6.782;2023-01-10T07:10:50;36.87;;;34.53;;
11431;SDS011;5772;50.940;6.782;2023-01-10T07:13:16;39.57;;;37.13;;
11431;SDS011;5772;50.940;6.782;2023-01-10T07:15:41;39.10;;;37.00;;
11431;SDS011;5772;50.940;6.782;2023-01-10T07:18:06;40.13;;;38.07;;
11431;SDS011;5772;50.940;6.782;2023-01-10T07:20:33;40.20;;;37.63;;
11431;SDS011;5772;50.940;6.782;2023-01-10T07:22:59;42.87;;;39.87;;
11431;SDS011;5772;50.940;6.782;2023-01-10T07:25:25;41.07;;;38.47;;
11431;SDS011;5772;50.940;6.782;2023-01-10T07:27:51;42.60;;;40.13;;
11431;SDS011;5772;50.940;6.782;2023-01-10T07:30:16;44.57;;;41.97;;
11431;SDS011;5772;50.940;6.782;2023-01-10T07:32:42;48.80;;;46.33;;
11431;SDS011;5772;50.940;6.782;2023-01-10T07:35:07;49.97;;;46.53;;
11431;SDS011;5772;50.940;6.782;2023-01-10T07:37:34;44.63;;;42.17;;
11431;SDS011;5772;50.940;6.782;2023-01-10T07:40:00;44.87;;;42.73;;
11431;SDS011;5772;50.940;6.782;2023-01-10T07:42:25;43.37;;;40.77;;
11431;SDS011;5772;50.940;6.782;2023-01-10T07:44:51;44.77;;;42.23;;
11431;SDS011;5772;50.940;6.782;2023-01-10T07:47:16;45.50;;;43.33;;
11431;SDS011;5772;50.940;6.782;2023-01-10T07:49:41;47.23;;;45.00;;
11431;SDS011;5772;50.940;6.782;2023-01-10T07:52:07;45.23;;;42.67;;
11431;SDS011;5772;50.940;6.782;2023-01-10T07:54:34;43.63;;;41.47;;
11431;SDS011;5772;50.940;6.782;2023-01-10T07:56:59;46.63;;;44.13;;
11431;SDS011;5772;50.940;6.782;2023-01-10T07:59:25;43.63;;;41.50;;
11431;SDS011;5772;50.940;6.782;2023-01-10T08:01:50;44.57;;;41.90;;
11431;SDS011;5772;50.940;6.782;2023-01-10T08:04:15;40.33;;;38.53;;
11431;SDS011;5772;50.940;6.782;2023-01-10T08:06:41;43.00;;;40.10;;
11431;SDS011;5772;50.940;6.782;2023-01-10T08:09:06;43.63;;;41.40;;
11431;SDS011;5772;50.940;6.782;2023-01-10T08:11:33;40.10;;;37.93;;
11431;SDS011;5772;50.940;6.782;2023-01-10T08:13:58;37.83;;;35.97;;
11431;SDS011;5772;50.940;6.782;2023-01-10T08:16:24;36.43;;;34.60;;
11431;SDS011;5772;50.940;6.782;2023-01-10T08:18:49;34.73;;;32.77;;
11431;SDS011;5772;50.940;6.782;2023-01-10T08:21:14;33.27;;;30.90;;
11431;SDS011;5772;50.940;6.782;2023-01-10T08:23:40;28.33;;;26.73;;
11431;SDS011;5772;50.940;6.782;2023-01-10T08:26:05;29.47;;;27.50;;
11431;SDS011;5772;50.940;6.782;2023-01-10T08:28:32;24.77;;;23.53;;
11431;SDS011;5772;50.940;6.782;2023-01-10T08:30:57;23.87;;;22.13;;
11431;SDS011;5772;50.940;6.782;2023-01-10T08:33:23;22.67;;;21.13;;
11431;SDS011;5772;50.940;6.782;2023-01-10T08:35:49;23.27;;;21.60;;
11431;SDS011;5772;50.940;6.782;2023-01-10T08:38:14;22.53;;;20.80;;
11431;SDS011;5772;50.940;6.782;2023-01-10T08:40:40;20.27;;;18.50;;
11431;SDS011;5772;50.940;6.782;2023-01-10T08:43:06;21.63;;;20.13;;
11431;SDS011;5772;50.940;6.782;2023-01-10T08:45:34;24.50;;;22.83;;
11431;SDS011;5772;50.940;6.782;2023-01-10T08:48:00;26.33;;;24.80;;
11431;SDS011;5772;50.940;6.782;2023-01-10T08:50:26;24.63;;;22.90;;
11431;SDS011;5772;50.940;6.782;2023-01-10T08:52:52;20.53;;;19.43;;
11431;SDS011;5772;50.940;6.782;2023-01-10T08:55:17;20.67;;;19.10;;
11431;SDS011;5772;50.940;6.782;2023-01-10T08:57:43;21.80;;;20.13;;
11431;SDS011;5772;50.940;6.782;2023-01-10T09:00:09;28.77;;;26.77;;
11431;SDS011;5772;50.940;6.782;2023-01-10T09:02:36;24.57;;;23.00;;
11431;SDS011;5772;50.940;6.782;2023-01-10T09:05:03;20.93;;;19.73;;
11431;SDS011;5772;50.940;6.782;2023-01-10T09:07:28;19.57;;;17.87;;
11431;SDS011;5772;50.940;6.782;2023-01-10T09:09:54;20.87;;;19.50;;
11431;SDS011;5772;50.940;6.782;2023-01-10T09:12:19;20.80;;;19.00;;
11431;SDS011;5772;50.940;6.782;2023-01-10T09:14:44;19.80;;;18.53;;
11431;SDS011;5772;50.940;6.782;2023-01-10T09:17:10;18.93;;;17.63;;
11431;SDS011;5772;50.940;6.782;2023-01-10T09:19:37;20.67;;;18.73;;
11431;SDS011;5772;50.940;6.782;2023-01-10T09:22:02;18.57;;;17.00;;
11431;SDS011;5772;50.940;6.782;2023-01-10T09:24:27;19.20;;;17.57;;
11431;SDS011;5772;50.940;6.782;2023-01-10T09:26:53;19.47;;;18.30;;
11431;SDS011;5772;50.940;6.782;2023-01-10T09:29:18;21.20;;;19.30;;
11431;SDS011;5772;50.940;6.782;2023-01-10T09:31:43;21.87;;;20.47;;
11431;SDS011;5772;50.940;6.782;2023-01-10T09:34:09;20.53;;;19.13;;
11431;SDS011;5772;50.940;6.782;2023-01-10T09:36:35;19.90;;;18.43;;
11431;SDS011;5772;50.940;6.782;2023-01-10T09:39:01;20.57;;;18.87;;
11431;SDS011;5772;50.940;6.782;2023-01-10T09:41:31;18.93;;;17.90;;
11431;SDS011;5772;50.940;6.782;2023-01-10T09:44:14;19.10;;;17.70;;
11431;SDS011;5772;50.940;6.782;2023-01-10T09:46:45;18.83;;;17.33;;
11431;SDS011;5772;50.940;6.782;2023-01-10T09:49:15;17.97;;;16.47;;
11431;SDS011;5772;50.940;6.782;2023-01-10T09:51:46;19.63;;;18.23;;
11431;SDS011;5772;50.940;6.782;2023-01-10T09:54:14;21.33;;;19.63;;
11431;SDS011;5772;50.940;6.782;2023-01-10T09:56:41;20.17;;;18.73;;
11431;SDS011;5772;50.940;6.782;2023-01-10T09:59:10;18.90;;;17.50;;
11431;SDS011;5772;50.940;6.782;2023-01-10T10:01:37;18.50;;;17.70;;
11431;SDS011;5772;50.940;6.782;2023-01-10T10:04:05;19.53;;;18.17;;
11431;SDS011;5772;50.940;6.782;2023-01-10T10:06:48;19.07;;;17.47;;
11431;SDS011;5772;50.940;6.782;2023-01-10T10:09:14;19.30;;;17.73;;
11431;SDS011;5772;50.940;6.782;2023-01-10T10:11:47;19.90;;;18.33;;
11431;SDS011;5772;50.940;6.782;2023-01-10T10:14:20;18.17;;;17.07;;
11431;SDS011;5772;50.940;6.782;2023-01-10T10:17:00;18.23;;;17.00;;
11431;SDS011;5772;50.940;6.782;2023-01-10T10:19:33;19.13;;;17.67;;
11431;SDS011;5772;50.940;6.782;2023-01-10T10:22:06;18.10;;;16.90;;
11431;SDS011;5772;50.940;6.782;2023-01-10T10:24:37;19.07;;;17.63;;
11431;SDS011;5772;50.940;6.782;2023-01-10T10:27:14;19.43;;;18.27;;
11431;SDS011;5772;50.940;6.782;2023-01-10T10:29:55;19.80;;;18.23;;
11431;SDS011;5772;50.940;6.782;2023-01-10T10:32:31;20.60;;;19.40;;
11431;SDS011;5772;50.940;6.782;2023-01-10T10:35:02;21.73;;;19.77;;
11431;SDS011;5772;50.940;6.782;2023-01-10T10:37:34;19.17;;;18.00;;
11431;SDS011;5772;50.940;6.782;2023-01-10T10:40:03;17.63;;;16.57;;
11431;SDS011;5772;50.940;6.782;2023-01-10T10:42:32;17.67;;;16.37;;
11431;SDS011;5772;50.940;6.782;2023-01-10T10:45:00;17.27;;;16.07;;
11431;SDS011;5772;50.940;6.782;2023-01-10T10:47:29;16.23;;;15.23;;
11431;SDS011;5772;50.940;6.782;2023-01-10T10:49:58;19.20;;;17.70;;
11431;SDS011;5772;50.940;6.782;2023-01-10T10:52:30;16.80;;;15.70;;
11431;SDS011;5772;50.940;6.782;2023-01-10T10:54:59;17.20;;;16.03;;
11431;SDS011;5772;50.940;6.782;2023-01-10T10:57:26;15.70;;;14.83;;
11431;SDS011;5772;50.940;6.782;2023-01-10T10:59:52;17.03;;;15.97;;
11431;SDS011;5772;50.940;6.782;2023-01-10T11:02:20;16.73;;;15.03;;
11431;SDS011;5772;50.940;6.782;2023-01-10T11:04:50;16.70;;;15.70;;
11431;SDS011;5772;50.940;6.782;2023-01-10T11:07:17;19.00;;;17.50;;
11431;SDS011;5772;50.940;6.782;2023-01-10T11:09:45;18.40;;;17.20;;
11431;SDS011;5772;50.940;6.782;2023-01-10T11:12:11;21.63;;;20.20;;
11431;SDS011;5772;50.940;6.782;2023-01-10T11:14:41;20.60;;;19.20;;
11431;SDS011;5772;50.940;6.782;2023-01-10T11:17:18;17.07;;;15.97;;
11431;SDS011;5772;50.940;6.782;2023-01-10T11:19:53;17.87;;;16.87;;
11431;SDS011;5772;50.940;6.782;2023-01-10T11:22:20;17.23;;;16.33;;
11431;SDS011;5772;50.940;6.782;2023-01-10T11:24:50;18.30;;;17.00;;
11431;SDS011;5772;50.940;6.782;2023-01-10T11:27:18;19.00;;;17.90;;
11431;SDS011;5772;50.940;6.782;2023-01-10T11:29:46;17.03;;;16.13;;
11431;SDS011;5772;50.940;6.782;2023-01-10T11:32:14;19.27;;;17.67;;
11431;SDS011;5772;50.940;6.782;2023-01-10T11:34:41;19.40;;;17.93;;
11431;SDS011;5772;50.940;6.782;2023-01-10T11:37:20;19.57;;;18.47;;
11431;SDS011;5772;50.940;6.782;2023-01-10T11:39:46;21.67;;;20.50;;
11431;SDS011;5772;50.940;6.782;2023-01-10T11:42:25;23.33;;;21.80;;
11431;SDS011;5772;50.940;6.782;2023-01-10T11:44:51;27.33;;;25.00;;
11431;SDS011;5772;50.940;6.782;2023-01-10T11:47:17;27.93;;;26.43;;
11431;SDS011;5772;50.940;6.782;2023-01-10T11:49:42;27.83;;;26.53;;
11431;SDS011;5772;50.940;6.782;2023-01-10T11:52:12;26.73;;;25.17;;
11431;SDS011;5772;50.940;6.782;2023-01-10T11:54:41;28.77;;;27.07;;
11431;SDS011;5772;50.940;6.782;2023-01-10T11:57:07;29.67;;;27.93;;
11431;SDS011;5772;50.940;6.782;2023-01-10T11:59:36;29.00;;;27.10;;
11431;SDS011;5772;50.940;6.782;2023-01-10T12:02:02;28.47;;;26.87;;
11431;SDS011;5772;50.940;6.782;2023-01-10T12:04:30;29.10;;;27.80;;
11431;SDS011;5772;50.940;6.782;2023-01-10T12:06:58;27.50;;;26.27;;
11431;SDS011;5772;50.940;6.782;2023-01-10T12:09:36;27.17;;;25.70;;
11431;SDS011;5772;50.940;6.782;2023-01-10T12:12:03;29.87;;;28.33;;
11431;SDS011;5772;50.940;6.782;2023-01-10T12:14:29;28.70;;;27.30;;
11431;SDS011;5772;50.940;6.782;2023-01-10T12:16:58;29.13;;;27.60;;
11431;SDS011;5772;50.940;6.782;2023-01-10T12:19:25;28.83;;;27.33;;
11431;SDS011;5772;50.940;6.782;2023-01-10T12:21:51;29.63;;;27.97;;
11431;SDS011;5772;50.940;6.782;2023-01-10T12:24:17;30.70;;;29.03;;
11431;SDS011;5772;50.940;6.782;2023-01-10T12:26:46;31.10;;;29.17;;
11431;SDS011;5772;50.940;6.782;2023-01-10T12:29:14;31.50;;;29.93;;
11431;SDS011;5772;50.940;6.782;2023-01-10T12:31:41;29.47;;;28.03;;
11431;SDS011;5772;50.940;6.782;2023-01-10T12:34:11;29.83;;;27.90;;
11431;SDS011;5772;50.940;6.782;2023-01-10T12:36:41;28.83;;;26.90;;
11431;SDS011;5772;50.940;6.782;2023-01-10T12:39:12;23.20;;;21.73;;
11431;SDS011;5772;50.940;6.782;2023-01-10T12:41:43;21.37;;;19.60;;
11431;SDS011;5772;50.940;6.782;2023-01-10T12:44:13;20.37;;;19.33;;
11431;SDS011;5772;50.940;6.782;2023-01-10T12:46:42;21.23;;;19.87;;
11431;SDS011;5772;50.940;6.782;2023-01-10T12:49:14;20.03;;;18.87;;
11431;SDS011;5772;50.940;6.782;2023-01-10T12:51:42;21.93;;;20.57;;
11431;SDS011;5772;50.940;6.782;2023-01-10T12:54:11;20.57;;;19.13;;
11431;SDS011;5772;50.940;6.782;2023-01-10T12:56:39;19.90;;;18.80;;
11431;SDS011;5772;50.940;6.782;2023-01-10T12:59:06;21.60;;;20.17;;
11431;SDS011;5772;50.940;6.782;2023-01-10T13:01:36;20.73;;;19.73;;
11431;SDS011;5772;50.940;6.782;2023-01-10T13:04:02;21.27;;;19.93;;
11431;SDS011;5772;50.940;6.782;2023-01-10T13:06:31;20.93;;;19.10;;
11431;SDS011;5772;50.940;6.782;2023-01-10T13:08:59;19.73;;;18.83;;
11431;SDS011;5772;50.940;6.782;2023-01-10T13:11:29;19.50;;;18.27;;
11431;SDS011;5772;50.940;6.782;2023-01-10T13:13:58;20.43;;;19.23;;
11431;SDS011;5772;50.940;6.782;2023-01-10T13:16:30;21.03;;;19.87;;
11431;SDS011;5772;50.940;6.782;2023-01-10T13:19:01;20.67;;;19.27;;
11431;SDS011;5772;50.940;6.782;2023-01-10T13:21:29;21.00;;;19.70;;
11431;SDS011;5772;50.940;6.782;2023-01-10T13:23:58;20.43;;;19.27;;
11431;SDS011;5772;50.940;6.782;2023-01-10T13:26:24;20.67;;;19.47;;
11431;SDS011;5772;50.940;6.782;2023-01-10T13:28:52;20.60;;;19.50;;
11431;SDS011;5772;50.940;6.782;2023-01-10T13:31:22;22.53;;;20.93;;
11431;SDS011;5772;50.940;6.782;2023-01-10T13:33:50;21.97;;;20.73;;
11431;SDS011;5772;50.940;6.782;2023-01-10T13:36:18;23.70;;;22.07;;
11431;SDS011;5772;50.940;6.782;2023-01-10T13:38:47;21.40;;;20.30;;
11431;SDS011;5772;50.940;6.782;2023-01-10T13:41:15;22.77;;;21.43;;
11431;SDS011;5772;50.940;6.782;2023-01-10T13:44:01;22.70;;;21.63;;
11431;SDS011;5772;50.940;6.782;2023-01-10T13:46:31;22.10;;;21.00;;
11431;SDS011;5772;50.940;6.782;2023-01-10T13:49:23;22.93;;;21.40;;
11431;SDS011;5772;50.940;6.782;2023-01-10T13:57:58;23.70;;;22.50;;
11431;SDS011;5772;50.940;6.782;2023-01-10T14:00:39;25.57;;;24.20;;
11431;SDS011;5772;50.940;6.782;2023-01-10T14:03:06;23.87;;;22.60;;
11431;SDS011;5772;50.940;6.782;2023-01-10T14:05:32;26.37;;;24.10;;
11431;SDS011;5772;50.940;6.782;2023-01-10T14:07:57;24.73;;;23.20;;
11431;SDS011;5772;50.940;6.782;2023-01-10T14:10:24;23.90;;;22.70;;
11431;SDS011;5772;50.940;6.782;2023-01-10T14:12:50;24.30;;;22.80;;
11431;SDS011;5772;50.940;6.782;2023-01-10T14:15:23;25.03;;;23.73;;
11431;SDS011;5772;50.940;6.782;2023-01-10T14:17:52;24.33;;;23.07;;
11431;SDS011;5772;50.940;6.782;2023-01-10T14:20:23;25.80;;;24.27;;
11431;SDS011;5772;50.940;6.782;2023-01-10T14:23:01;25.73;;;23.80;;
11431;SDS011;5772;50.940;6.782;2023-01-10T14:25:29;25.03;;;23.83;;
11431;SDS011;5772;50.940;6.782;2023-01-10T14:27:56;25.20;;;23.70;;
11431;SDS011;5772;50.940;6.782;2023-01-10T14:30:28;26.07;;;24.67;;
11431;SDS011;5772;50.940;6.782;2023-01-10T14:32:55;27.37;;;25.27;;
11431;SDS011;5772;50.940;6.782;2023-01-10T14:35:22;23.80;;;22.87;;
11431;SDS011;5772;50.940;6.782;2023-01-10T14:37:57;26.40;;;24.33;;
11431;SDS011;5772;50.940;6.782;2023-01-10T14:40:25;25.40;;;24.20;;
11431;SDS011;5772;50.940;6.782;2023-01-10T14:42:51;26.50;;;24.37;;
11431;SDS011;5772;50.940;6.782;2023-01-10T14:45:19;25.03;;;23.53;;
11431;SDS011;5772;50.940;6.782;2023-01-10T14:47:53;23.80;;;22.53;;
11431;SDS011;5772;50.940;6.782;2023-01-10T14:50:23;26.10;;;24.57;;